Time;durP1;ratioP1;P1;durP2;ratioP2;P2;SDS_P1;SDS_P2;PMS_P1;PMS_P2;Temp;Humidity;BMP_temperature;BMP_pressure;BME280_temperature;BME280_humidity;BME280_pressure;Samples;Min_cycle;Max_cycle;Signal;HPM_P1;HPM_P2
2022/05/04 00:02:22;;;;;;;;;;;10.20;99.90;;;;;;5010199;28;20278;-71
2022/05/04 00:04:54;;;;;;;;;;;10.20;99.90;;;;;;5011522;28;19925;-71
2022/05/04 00:07:25;;;;;;;;;;;10.10;99.90;;;;;;5010257;28;20390;-71
2022/05/04 00:09:58;;;;;;;;;;;10.10;99.90;;;;;;5008830;28;19925;-71
2022/05/04 00:12:29;;;;;;;;;;;10.10;99.90;;;;;;5012562;28;19937;-72
2022/05/04 00:15:01;;;;;;;;;;;10.00;99.90;;;;;;5007819;28;19929;-71
2022/05/04 00:17:33;;;;;;;;;;;9.90;99.90;;;;;;5009178;28;19925;-72
2022/05/04 00:20:05;;;;;;;;;;;9.90;99.90;;;;;;5009437;28;19925;-71
2022/05/04 00:22:36;;;;;;;;;;;9.90;99.90;;;;;;5006291;28;20425;-71
2022/05/04 00:25:08;;;;;;;;;;;9.80;99.90;;;;;;5013050;28;19932;-71
2022/05/04 00:27:36;;;;;;;;;;;9.90;99.90;;;;;;5006408;28;19926;-71
2022/05/04 00:30:04;;;;;;;;;;;9.90;99.90;;;;;;4995613;28;20024;-71
2022/05/04 00:32:36;;;;;;;;;;;9.90;99.90;;;;;;5006224;28;19930;-72
2022/05/04 00:35:07;;;;;;;;;;;9.90;99.90;;;;;;5012255;28;19945;-71
2022/05/04 00:37:39;;;;;;;;;;;9.90;99.90;;;;;;5009150;28;19932;-71
2022/05/04 00:40:11;;;;;;;;;;;10.00;99.90;;;;;;5009630;28;20377;-71
2022/05/04 00:42:42;;;;;;;;;;;10.00;99.90;;;;;;4995234;28;20294;-72
2022/05/04 00:45:14;;;;;;;;;;;10.00;99.90;;;;;;5007565;28;19952;-71
2022/05/04 00:47:46;;;;;;;;;;;10.00;99.90;;;;;;5010506;28;19936;-71
2022/05/04 00:50:18;;;;;;;;;;;9.90;99.90;;;;;;5010019;28;19940;-71
2022/05/04 00:52:50;;;;;;;;;;;9.90;99.90;;;;;;4990579;28;19937;-71
2022/05/04 00:55:22;;;;;;;;;;;9.90;99.90;;;;;;5006400;28;20353;-72
2022/05/04 01:00:45;;;;;;;;;;;9.90;99.90;;;;;;5022122;28;19925;-71
2022/05/04 01:03:12;;;;;;;;;;;9.90;99.90;;;;;;5007681;28;19929;-72
2022/05/04 01:05:44;;;;;;;;;;;10.00;99.90;;;;;;5009949;28;20401;-72
2022/05/04 01:08:15;;;;;;;;;;;10.00;99.90;;;;;;5007022;28;19929;-71
2022/05/04 01:10:47;;;;;;;;;;;10.00;99.90;;;;;;4992870;28;19932;-71
2022/05/04 01:13:17;;;;;;;;;;;10.00;99.90;;;;;;4997267;28;19980;-71
2022/05/04 01:15:49;;;;;;;;;;;10.00;99.90;;;;;;5009471;28;19933;-72
2022/05/04 01:18:16;;;;;;;;;;;10.00;99.90;;;;;;5008591;28;19925;-72
2022/05/04 01:20:42;;;;;;;;;;;10.00;99.90;;;;;;5007709;28;20408;-71
2022/05/04 01:23:15;;;;;;;;;;;10.00;99.90;;;;;;5006069;28;19932;-71
2022/05/04 01:25:47;;;;;;;;;;;10.00;99.90;;;;;;5010167;28;20024;-72
2022/05/04 01:28:13;;;;;;;;;;;9.90;99.90;;;;;;5003184;28;19951;-72
2022/05/04 01:30:45;;;;;;;;;;;9.90;99.90;;;;;;5010120;28;19925;-72
2022/05/04 01:33:16;;;;;;;;;;;9.90;99.90;;;;;;5002798;28;19936;-72
2022/05/04 01:35:43;;;;;;;;;;;9.90;99.90;;;;;;4994659;28;20400;-72
2022/05/04 01:38:15;;;;;;;;;;;9.90;99.90;;;;;;4999184;28;19926;-72
2022/05/04 01:40:46;;;;;;;;;;;10.00;99.90;;;;;;5008413;28;19952;-72
2022/05/04 01:43:18;;;;;;;;;;;10.00;99.90;;;;;;5003157;28;19925;-71
2022/05/04 01:45:50;;;;;;;;;;;10.00;99.90;;;;;;5004844;28;19929;-72
2022/05/04 01:48:22;;;;;;;;;;;10.00;99.90;;;;;;5009169;28;19925;-72
2022/05/04 01:50:54;;;;;;;;;;;10.00;99.90;;;;;;4983880;28;19936;-72
2022/05/04 01:53:25;;;;;;;;;;;10.10;99.90;;;;;;4993548;28;19964;-72
2022/05/04 01:55:58;;;;;;;;;;;10.10;99.90;;;;;;5003103;28;19936;-72
2022/05/04 01:58:29;;;;;;;;;;;10.10;99.90;;;;;;4998451;28;19925;-71
2022/05/04 02:01:01;;;;;;;;;;;10.00;99.90;;;;;;5007975;28;19930;-71
2022/05/04 02:03:28;;;;;;;;;;;10.00;99.90;;;;;;5000461;28;19929;-72
2022/05/04 02:05:55;;;;;;;;;;;10.00;99.90;;;;;;4981236;28;20386;-72
2022/05/04 02:08:27;;;;;;;;;;;10.10;99.90;;;;;;5003848;28;19936;-72
2022/05/04 02:10:59;;;;;;;;;;;10.00;99.90;;;;;;4998241;28;20390;-72
2022/05/04 02:13:31;;;;;;;;;;;10.00;99.90;;;;;;5001497;28;19925;-72
2022/05/04 02:16:03;;;;;;;;;;;10.00;99.90;;;;;;4999913;28;19925;-72
2022/05/04 02:18:35;;;;;;;;;;;9.90;99.90;;;;;;4998446;28;19926;-71
2022/05/04 02:21:07;;;;;;;;;;;9.90;99.90;;;;;;4998435;28;20287;-72
2022/05/04 02:23:33;;;;;;;;;;;9.80;99.90;;;;;;5003295;28;19932;-71
2022/05/04 02:26:00;;;;;;;;;;;9.80;99.90;;;;;;5002898;28;19937;-71
2022/05/04 02:28:31;;;;;;;;;;;9.80;99.90;;;;;;5003444;28;19929;-72
2022/05/04 02:31:03;;;;;;;;;;;9.90;99.90;;;;;;5003776;28;19960;-72
2022/05/04 02:33:30;;;;;;;;;;;9.90;99.90;;;;;;5000358;28;19941;-72
2022/05/04 02:38:51;;;;;;;;;;;9.90;99.90;;;;;;5001342;28;19929;-71
2022/05/04 02:41:23;;;;;;;;;;;9.90;99.90;;;;;;4999727;28;20466;-71
2022/05/04 02:43:55;;;;;;;;;;;9.90;99.90;;;;;;5001353;28;19930;-72
2022/05/04 02:46:28;;;;;;;;;;;9.90;99.90;;;;;;4999098;28;19926;-71
2022/05/04 02:49:00;;;;;;;;;;;9.90;99.90;;;;;;5002995;28;19936;-72
2022/05/04 02:51:31;;;;;;;;;;;9.90;99.90;;;;;;5005535;28;19930;-72
2022/05/04 02:54:03;;;;;;;;;;;9.90;99.90;;;;;;5002827;28;20421;-71
2022/05/04 02:56:35;;;;;;;;;;;9.90;99.90;;;;;;4995846;28;19984;-71
2022/05/04 02:59:06;;;;;;;;;;;9.80;99.90;;;;;;5002661;28;19925;-72
2022/05/04 03:04:36;;;;;;;;;;;9.70;99.90;;;;;;4999907;28;19929;-71
2022/05/04 03:07:08;;;;;;;;;;;9.70;99.90;;;;;;5007087;28;20477;-71
2022/05/04 03:09:39;;;;;;;;;;;9.70;99.90;;;;;;5005142;28;19926;-72
2022/05/04 03:12:11;;;;;;;;;;;9.70;99.90;;;;;;5001323;28;19929;-72
2022/05/04 03:14:43;;;;;;;;;;;9.70;99.90;;;;;;5003857;28;19930;-71
2022/05/04 03:17:15;;;;;;;;;;;9.70;99.90;;;;;;5000999;28;19929;-71
2022/05/04 03:19:47;;;;;;;;;;;9.70;99.90;;;;;;4994443;28;20401;-72
2022/05/04 03:22:19;;;;;;;;;;;9.70;99.90;;;;;;4999360;28;19926;-70
2022/05/04 03:24:50;;;;;;;;;;;9.60;99.90;;;;;;4995695;28;19937;-72
2022/05/04 03:27:22;;;;;;;;;;;9.50;99.90;;;;;;5003234;28;19925;-72
2022/05/04 03:29:54;;;;;;;;;;;9.50;99.90;;;;;;5005560;28;19930;-72
2022/05/04 03:32:25;;;;;;;;;;;9.30;99.90;;;;;;4998016;28;19926;-70
2022/05/04 03:34:57;;;;;;;;;;;9.30;99.90;;;;;;5008310;28;19930;-72
2022/05/04 03:37:23;;;;;;;;;;;9.30;99.90;;;;;;5000689;28;19935;-72
2022/05/04 03:39:55;;;;;;;;;;;9.30;99.90;;;;;;5004831;28;20314;-72
2022/05/04 03:42:21;;;;;;;;;;;9.40;99.90;;;;;;5001006;28;20062;-72
2022/05/04 03:44:53;;;;;;;;;;;9.40;99.90;;;;;;4986006;28;20028;-71
2022/05/04 03:47:25;;;;;;;;;;;9.40;99.90;;;;;;4993477;28;19926;-72
2022/05/04 03:49:56;;;;;;;;;;;9.30;99.90;;;;;;4981909;28;20378;-71
2022/05/04 03:52:29;;;;;;;;;;;9.30;99.90;;;;;;4984676;28;20387;-71
2022/05/04 03:55:00;;;;;;;;;;;9.30;99.90;;;;;;4996043;28;20417;-72
2022/05/04 03:57:27;;;;;;;;;;;9.30;99.90;;;;;;4991867;28;20029;-72
2022/05/04 03:59:58;;;;;;;;;;;9.30;99.90;;;;;;4986488;28;19930;-72
2022/05/04 04:02:30;;;;;;;;;;;9.30;99.90;;;;;;5003472;28;19936;-71
2022/05/04 04:05:02;;;;;;;;;;;9.30;99.90;;;;;;5005583;28;19933;-71
2022/05/04 04:07:34;;;;;;;;;;;9.30;99.90;;;;;;5009102;28;20461;-71
2022/05/04 04:10:05;;;;;;;;;;;9.30;99.90;;;;;;5005438;28;19933;-72
2022/05/04 04:12:37;;;;;;;;;;;9.20;99.90;;;;;;4992574;28;20412;-71
2022/05/04 04:15:09;;;;;;;;;;;9.20;99.90;;;;;;5008317;28;20297;-72
2022/05/04 04:17:40;;;;;;;;;;;9.20;99.90;;;;;;5005829;28;19932;-71
2022/05/04 04:23:02;;;;;;;;;;;9.30;99.90;;;;;;4999809;28;20409;-72
2022/05/04 04:25:34;;;;;;;;;;;9.30;99.90;;;;;;4998558;28;19937;-72
2022/05/04 04:28:01;;;;;;;;;;;9.30;99.90;;;;;;5005828;28;19932;-71
2022/05/04 04:30:32;;;;;;;;;;;9.30;99.90;;;;;;5005893;28;19926;-72
2022/05/04 04:33:05;;;;;;;;;;;9.30;99.90;;;;;;4980989;28;20512;-71
2022/05/04 04:35:36;;;;;;;;;;;9.30;99.90;;;;;;5009295;28;19962;-72
2022/05/04 04:38:08;;;;;;;;;;;9.30;99.90;;;;;;5004856;28;20394;-72
2022/05/04 04:40:40;;;;;;;;;;;9.30;99.90;;;;;;4992339;28;19942;-72
2022/05/04 04:43:11;;;;;;;;;;;9.40;99.90;;;;;;5001650;28;19925;-72
2022/05/04 04:45:43;;;;;;;;;;;9.40;99.90;;;;;;5003902;28;19929;-72
2022/05/04 04:48:16;;;;;;;;;;;9.50;99.90;;;;;;5011361;28;19935;-72
2022/05/04 04:50:46;;;;;;;;;;;9.50;99.90;;;;;;5007606;28;20021;-72
2022/05/04 04:53:18;;;;;;;;;;;9.50;99.90;;;;;;5008240;28;19929;-72
2022/05/04 04:55:50;;;;;;;;;;;9.60;99.90;;;;;;5006559;28;19925;-71
2022/05/04 04:58:21;;;;;;;;;;;9.70;99.90;;;;;;5007311;28;19936;-71
2022/05/04 05:00:53;;;;;;;;;;;9.70;99.90;;;;;;5007809;28;20423;-72
2022/05/04 05:03:25;;;;;;;;;;;9.80;99.90;;;;;;5009840;28;19936;-72
2022/05/04 05:05:56;;;;;;;;;;;9.90;99.90;;;;;;5009250;28;20353;-72
2022/05/04 05:08:28;;;;;;;;;;;9.90;99.90;;;;;;5009460;28;20432;-72
2022/05/04 05:11:00;;;;;;;;;;;10.00;99.90;;;;;;5008176;28;19944;-72
2022/05/04 05:13:31;;;;;;;;;;;10.00;99.90;;;;;;5007474;28;19932;-72
2022/05/04 05:16:09;;;;;;;;;;;10.00;99.90;;;;;;5008882;28;19929;-72
2022/05/04 05:18:36;;;;;;;;;;;10.00;99.90;;;;;;5006754;28;20360;-71
2022/05/04 05:21:08;;;;;;;;;;;10.10;99.90;;;;;;5011361;28;19926;-72
2022/05/04 05:23:34;;;;;;;;;;;10.20;99.90;;;;;;4993526;28;20401;-72
2022/05/04 05:26:06;;;;;;;;;;;10.20;99.90;;;;;;5011231;28;19925;-72
2022/05/04 05:28:33;;;;;;;;;;;10.20;99.90;;;;;;5006810;28;19930;-72
2022/05/04 05:31:00;;;;;;;;;;;10.10;99.90;;;;;;5008129;28;19925;-71
2022/05/04 05:33:26;;;;;;;;;;;10.00;99.90;;;;;;5008125;28;19926;-72
2022/05/04 05:35:58;;;;;;;;;;;10.00;99.90;;;;;;5010973;28;20325;-71
2022/05/04 05:38:29;;;;;;;;;;;9.90;99.90;;;;;;5009444;28;20306;-72
2022/05/04 05:41:01;;;;;;;;;;;9.90;99.90;;;;;;5007060;28;19929;-72
2022/05/04 05:43:33;;;;;;;;;;;10.00;99.90;;;;;;5007882;28;19933;-72
2022/05/04 05:46:04;;;;;;;;;;;10.10;99.90;;;;;;5010441;28;19933;-72
2022/05/04 05:48:31;;;;;;;;;;;10.10;99.90;;;;;;5002906;28;19933;-71
2022/05/04 05:51:05;;;;;;;;;;;10.20;99.90;;;;;;5000585;28;19933;-72
2022/05/04 05:53:37;;;;;;;;;;;10.30;99.90;;;;;;5002853;28;19933;-72
2022/05/04 05:56:09;;;;;;;;;;;10.40;99.90;;;;;;5002248;28;20087;-72
2022/05/04 05:58:40;;;;;;;;;;;10.40;99.90;;;;;;4997334;28;20390;-72
2022/05/04 06:01:07;;;;;;;;;;;10.50;99.90;;;;;;4998402;28;19926;-72
2022/05/04 06:03:38;;;;;;;;;;;10.50;99.90;;;;;;5004027;28;19929;-72
2022/05/04 06:06:10;;;;;;;;;;;10.60;99.90;;;;;;4994351;28;19925;-71
2022/05/04 06:08:41;;;;;;;;;;;10.70;99.90;;;;;;5003804;28;20008;-72
2022/05/04 06:11:13;;;;;;;;;;;10.60;99.90;;;;;;5006667;28;19929;-71
2022/05/04 06:13:40;;;;;;;;;;;10.70;99.90;;;;;;4983619;28;19926;-71
2022/05/04 06:16:11;;;;;;;;;;;10.70;99.90;;;;;;5002705;28;19926;-71
2022/05/04 06:18:43;;;;;;;;;;;10.70;99.90;;;;;;5002348;28;19933;-72
2022/05/04 06:21:14;;;;;;;;;;;10.80;99.90;;;;;;5007112;28;19926;-72
2022/05/04 06:23:46;;;;;;;;;;;10.80;99.90;;;;;;5009615;28;19929;-72
2022/05/04 06:26:23;;;;;;;;;;;10.90;99.90;;;;;;5005776;28;19932;-72
2022/05/04 06:28:54;;;;;;;;;;;11.00;99.90;;;;;;5003118;28;19926;-72
2022/05/04 06:34:18;;;;;;;;;;;11.10;99.90;;;;;;4994046;28;21274;-71
2022/05/04 06:36:50;;;;;;;;;;;11.20;99.90;;;;;;5000747;28;19932;-72
2022/05/04 06:39:22;;;;;;;;;;;11.20;99.90;;;;;;4988058;28;20381;-72
2022/05/04 06:41:53;;;;;;;;;;;11.30;99.90;;;;;;5001003;28;19926;-72
2022/05/04 06:44:25;;;;;;;;;;;11.30;99.90;;;;;;5003103;28;19933;-72
2022/05/04 06:46:56;;;;;;;;;;;11.40;99.90;;;;;;5003571;28;19948;-72
2022/05/04 06:49:23;;;;;;;;;;;11.50;99.90;;;;;;5003000;28;19925;-72
2022/05/04 06:51:54;;;;;;;;;;;11.60;99.90;;;;;;5004612;28;20028;-72
2022/05/04 06:54:26;;;;;;;;;;;11.70;99.90;;;;;;5002447;28;19932;-72
2022/05/04 06:56:52;;;;;;;;;;;11.70;99.90;;;;;;4997087;28;19930;-72
2022/05/04 06:59:24;;;;;;;;;;;11.80;99.90;;;;;;4996914;28;19932;-72
2022/05/04 07:01:51;;;;;;;;;;;11.80;99.90;;;;;;5001629;28;19929;-72
2022/05/04 07:04:22;;;;;;;;;;;11.80;99.90;;;;;;4999245;28;19937;-71
2022/05/04 07:06:54;;;;;;;;;;;11.90;99.90;;;;;;4998455;28;19926;-71
2022/05/04 07:09:26;;;;;;;;;;;11.90;99.90;;;;;;5004183;28;19936;-72
2022/05/04 07:11:58;;;;;;;;;;;11.90;99.90;;;;;;5001168;28;19936;-72
2022/05/04 07:14:24;;;;;;;;;;;12.00;99.90;;;;;;5005563;28;20371;-72
2022/05/04 07:16:51;;;;;;;;;;;12.00;99.90;;;;;;4996791;28;20397;-71
2022/05/04 07:19:17;;;;;;;;;;;12.00;99.90;;;;;;4996052;28;19937;-72
2022/05/04 07:21:49;;;;;;;;;;;12.00;99.90;;;;;;5000614;28;20477;-71
2022/05/04 07:24:21;;;;;;;;;;;12.10;99.90;;;;;;5003892;28;19932;-72
2022/05/04 07:26:47;;;;;;;;;;;12.20;99.90;;;;;;4999669;28;19937;-72
2022/05/04 07:29:14;;;;;;;;;;;12.20;99.90;;;;;;4990799;28;19933;-72
2022/05/04 07:31:46;;;;;;;;;;;12.30;99.90;;;;;;5002477;28;19926;-71
2022/05/04 07:34:18;;;;;;;;;;;12.30;99.90;;;;;;4988286;28;19937;-72
2022/05/04 07:36:49;;;;;;;;;;;12.50;99.90;;;;;;5007497;28;20414;-72
2022/05/04 07:42:27;;;;;;;;;;;12.60;99.90;;;;;;5006165;28;19926;-72
2022/05/04 07:44:59;;;;;;;;;;;12.80;99.90;;;;;;5005783;28;20420;-72
2022/05/04 07:47:31;;;;;;;;;;;12.90;99.90;;;;;;4991927;28;20413;-72
2022/05/04 07:50:05;;;;;;;;;;;13.00;99.90;;;;;;5005050;28;19936;-72
2022/05/04 07:52:36;;;;;;;;;;;13.10;99.90;;;;;;5007196;28;19926;-72
2022/05/04 07:55:08;;;;;;;;;;;13.10;99.90;;;;;;5000937;28;19929;-72
2022/05/04 07:57:35;;;;;;;;;;;13.20;99.90;;;;;;5005371;28;19929;-72
2022/05/04 08:05:40;;;;;;;;;;;13.60;99.90;;;;;;5011946;28;20040;-72
2022/05/04 08:08:11;;;;;;;;;;;13.80;99.90;;;;;;4997210;28;19948;-72
2022/05/04 08:10:43;;;;;;;;;;;13.90;99.90;;;;;;5012628;28;20294;-71
2022/05/04 08:13:15;;;;;;;;;;;14.00;99.90;;;;;;5009423;28;19957;-76
2022/05/04 08:15:46;;;;;;;;;;;14.20;99.90;;;;;;4996358;28;19926;-73
2022/05/04 08:18:18;;;;;;;;;;;14.40;99.90;;;;;;4981396;28;19932;-72
2022/05/04 08:20:44;;;;;;;;;;;14.60;99.90;;;;;;5007523;28;19937;-72
2022/05/04 08:23:16;;;;;;;;;;;14.60;99.90;;;;;;5015894;28;20401;-72
2022/05/04 08:25:50;;;;;;;;;;;14.70;99.90;;;;;;5009708;28;19933;-72
2022/05/04 08:28:18;;;;;;;;;;;14.70;99.90;;;;;;5004577;28;19926;-72
2022/05/04 08:30:45;;;;;;;;;;;14.80;99.90;;;;;;5004625;28;19949;-72
2022/05/04 08:33:16;;;;;;;;;;;14.90;99.90;;;;;;4998402;28;19933;-72
2022/05/04 08:35:48;;;;;;;;;;;15.00;99.90;;;;;;5000026;28;19930;-72
2022/05/04 08:38:19;;;;;;;;;;;15.10;99.90;;;;;;5010969;28;19936;-72
2022/05/04 08:40:53;;;;;;;;;;;15.20;99.90;;;;;;5008832;28;20327;-72
2022/05/04 08:43:26;;;;;;;;;;;15.40;99.90;;;;;;5004870;28;19929;-72
2022/05/04 08:45:59;;;;;;;;;;;15.50;99.90;;;;;;5000368;28;19926;-72
2022/05/04 08:48:32;;;;;;;;;;;15.60;99.90;;;;;;5008041;28;19925;-72
2022/05/04 08:51:04;;;;;;;;;;;15.70;99.90;;;;;;5007830;28;19969;-72
2022/05/04 08:53:36;;;;;;;;;;;15.90;99.90;;;;;;5000012;28;19925;-72
2022/05/04 08:56:09;;;;;;;;;;;16.00;99.90;;;;;;5009497;28;19969;-72
2022/05/04 08:58:37;;;;;;;;;;;16.10;99.90;;;;;;5012112;28;20019;-72
2022/05/04 09:01:04;;;;;;;;;;;16.20;99.90;;;;;;5010166;28;19940;-72
2022/05/04 09:03:37;;;;;;;;;;;16.30;99.90;;;;;;5009300;28;19926;-72
2022/05/04 09:06:04;;;;;;;;;;;16.40;99.90;;;;;;5005010;28;19929;-72
2022/05/04 09:08:52;;;;;;;;;;;16.40;99.90;;;;;;5011588;28;20048;-72
2022/05/04 09:11:24;;;;;;;;;;;16.50;99.90;;;;;;5015011;28;19936;-72
2022/05/04 09:13:55;;;;;;;;;;;16.70;99.90;;;;;;5017249;28;19948;-72
2022/05/04 09:16:32;;;;;;;;;;;16.80;99.90;;;;;;5006737;28;19925;-73
2022/05/04 09:19:08;;;;;;;;;;;17.00;99.90;;;;;;5016919;28;19930;-73
2022/05/04 09:21:40;;;;;;;;;;;17.20;99.90;;;;;;5010434;28;19933;-73
2022/05/04 09:24:13;;;;;;;;;;;17.30;99.90;;;;;;5002424;28;19926;-73
2022/05/04 09:26:45;;;;;;;;;;;17.40;99.90;;;;;;5000997;28;20609;-72
2022/05/04 09:29:17;;;;;;;;;;;17.50;99.90;;;;;;5007862;28;20016;-72
2022/05/04 09:31:48;;;;;;;;;;;17.60;99.90;;;;;;4999035;28;19932;-73
2022/05/04 09:34:33;;;;;;;;;;;17.60;99.90;;;;;;5011188;28;19929;-72
2022/05/04 09:45:39;;;;;;;;;;;17.70;99.90;;;;;;5017633;28;19930;-72
2022/05/04 09:48:11;;;;;;;;;;;17.60;99.90;;;;;;5007913;28;19930;-72
2022/05/04 09:50:45;;;;;;;;;;;17.70;99.90;;;;;;4986714;28;20017;-72
2022/05/04 09:53:12;;;;;;;;;;;17.70;99.90;;;;;;5004912;28;20394;-72
2022/05/04 09:55:44;;;;;;;;;;;17.70;99.90;;;;;;4987790;28;20458;-72
2022/05/04 09:58:11;;;;;;;;;;;17.90;99.90;;;;;;4994331;28;19937;-73
2022/05/04 10:00:42;;;;;;;;;;;18.00;99.90;;;;;;4999529;28;19934;-73
2022/05/04 10:03:15;;;;;;;;;;;17.90;99.90;;;;;;5006753;28;20032;-72
2022/05/04 10:05:48;;;;;;;;;;;17.90;99.90;;;;;;5007961;28;19929;-71
2022/05/04 10:08:20;;;;;;;;;;;18.10;99.90;;;;;;5002722;28;19930;-72
2022/05/04 10:10:53;;;;;;;;;;;18.20;99.90;;;;;;5000310;28;19948;-73
2022/05/04 10:13:25;;;;;;;;;;;18.40;99.90;;;;;;5008308;28;19930;-72
2022/05/04 10:15:57;;;;;;;;;;;18.70;99.90;;;;;;5003017;28;19925;-73
2022/05/04 10:18:26;;;;;;;;;;;18.90;99.90;;;;;;4999436;28;19926;-72
2022/05/04 10:21:05;;;;;;;;;;;19.00;99.90;;;;;;5006554;28;19936;-73
2022/05/04 10:23:42;;;;;;;;;;;19.20;99.90;;;;;;4997685;28;19936;-72
2022/05/04 10:26:11;;;;;;;;;;;19.50;99.90;;;;;;4982396;28;19934;-72
2022/05/04 10:30:30;;;;;;;;;;;19.60;99.90;;;;;;4992666;28;19934;-72
2022/05/04 10:31:34;;;;;;;;;;;19.70;99.90;;;;;;5009660;28;19991;-72
2022/05/04 10:34:07;;;;;;;;;;;19.70;99.90;;;;;;5007382;28;19929;-72
2022/05/04 10:36:39;;;;;;;;;;;19.70;99.90;;;;;;5009397;28;19929;-73
2022/05/04 10:39:06;;;;;;;;;;;19.80;99.90;;;;;;5009389;28;19930;-72
2022/05/04 10:41:38;;;;;;;;;;;19.70;99.90;;;;;;5007388;28;19925;-72
2022/05/04 10:44:10;;;;;;;;;;;19.70;99.90;;;;;;5000771;28;19937;-72
2022/05/04 10:46:44;;;;;;;;;;;19.50;99.90;;;;;;5009974;28;20357;-72
2022/05/04 10:49:14;;;;;;;;;;;19.40;99.90;;;;;;5007962;28;20013;-72
2022/05/04 10:51:42;;;;;;;;;;;19.20;99.90;;;;;;5006120;28;20365;-72
2022/05/04 10:54:13;;;;;;;;;;;19.00;99.90;;;;;;5010272;28;20412;-72
2022/05/04 10:56:46;;;;;;;;;;;19.10;99.90;;;;;;5001355;28;20305;-72
2022/05/04 10:59:30;;;;;;;;;;;19.00;99.90;;;;;;4995871;28;19926;-72
2022/05/04 11:02:05;;;;;;;;;;;18.90;99.90;;;;;;4998590;28;19930;-72
2022/05/04 11:04:39;;;;;;;;;;;18.80;99.90;;;;;;4995238;28;20024;-72
2022/05/04 11:07:12;;;;;;;;;;;18.80;99.90;;;;;;5004160;28;19925;-72
2022/05/04 11:09:42;;;;;;;;;;;18.50;99.90;;;;;;5008963;28;19933;-72
2022/05/04 11:12:13;;;;;;;;;;;18.20;99.90;;;;;;5001391;28;19936;-72
2022/05/04 11:14:45;;;;;;;;;;;17.90;99.90;;;;;;5003491;28;20024;-72
2022/05/04 11:17:17;;;;;;;;;;;17.70;99.90;;;;;;4999428;28;19929;-72
2022/05/04 11:19:48;;;;;;;;;;;17.40;99.90;;;;;;5020281;28;20032;-72
2022/05/04 11:22:20;;;;;;;;;;;17.20;99.90;;;;;;5006869;28;20386;-72
2022/05/04 11:24:52;;;;;;;;;;;16.90;99.90;;;;;;4998166;28;19932;-72
2022/05/04 11:27:24;;;;;;;;;;;16.70;99.90;;;;;;4994446;28;19926;-72
2022/05/04 11:29:59;;;;;;;;;;;16.70;99.90;;;;;;5000553;28;19926;-73
2022/05/04 11:32:33;;;;;;;;;;;16.50;99.90;;;;;;4990424;28;20413;-72
2022/05/04 11:35:04;;;;;;;;;;;16.20;99.90;;;;;;5000739;28;20302;-72
2022/05/04 11:37:38;;;;;;;;;;;16.10;99.90;;;;;;5023913;28;19926;-72
2022/05/04 11:40:15;;;;;;;;;;;16.00;99.90;;;;;;4992845;28;19930;-72
2022/05/04 11:42:48;;;;;;;;;;;16.10;99.90;;;;;;4990610;28;19926;-72
2022/05/04 11:45:16;;;;;;;;;;;16.10;99.90;;;;;;5005499;28;19933;-72
2022/05/04 11:47:48;;;;;;;;;;;16.10;99.90;;;;;;5003137;28;20027;-73
2022/05/04 11:50:19;;;;;;;;;;;16.20;99.90;;;;;;5003750;28;19937;-72
2022/05/04 11:52:51;;;;;;;;;;;16.50;99.90;;;;;;4997895;28;19926;-72
2022/05/04 11:55:23;;;;;;;;;;;16.90;99.90;;;;;;5001860;28;21165;-72
2022/05/04 11:57:58;;;;;;;;;;;17.20;99.90;;;;;;5002930;28;20291;-72
2022/05/04 12:00:30;;;;;;;;;;;17.60;99.90;;;;;;5002991;28;19949;-72
2022/05/04 12:03:03;;;;;;;;;;;18.00;99.90;;;;;;5001526;28;19949;-72
2022/05/04 12:05:30;;;;;;;;;;;18.20;99.90;;;;;;5009914;28;19933;-72
2022/05/04 12:08:02;;;;;;;;;;;18.50;99.90;;;;;;5010675;28;19938;-72
2022/05/04 12:10:35;;;;;;;;;;;18.70;99.90;;;;;;5010075;28;19926;-72
2022/05/04 12:13:06;;;;;;;;;;;18.80;99.90;;;;;;5005432;28;20386;-72
2022/05/04 12:15:39;;;;;;;;;;;19.00;99.90;;;;;;4990602;28;20309;-72
2022/05/04 12:18:11;;;;;;;;;;;19.20;99.90;;;;;;4989832;28;20397;-72
2022/05/04 12:20:43;;;;;;;;;;;19.30;99.90;;;;;;5002821;28;19926;-72
2022/05/04 12:23:17;;;;;;;;;;;19.50;99.90;;;;;;5003630;28;19937;-73
2022/05/04 12:25:49;;;;;;;;;;;19.70;99.90;;;;;;5004782;28;19933;-72
2022/05/04 12:28:21;;;;;;;;;;;19.80;99.90;;;;;;5001729;28;19937;-72
2022/05/04 12:33:38;;;;;;;;;;;20.00;99.90;;;;;;4998282;28;19926;-72
2022/05/04 12:36:10;;;;;;;;;;;20.10;99.90;;;;;;5008396;28;21236;-72
2022/05/04 12:38:47;;;;;;;;;;;20.20;99.90;;;;;;5004531;28;19926;-72
2022/05/04 12:41:21;;;;;;;;;;;20.30;99.90;;;;;;5010691;28;19925;-72
2022/05/04 12:43:52;;;;;;;;;;;20.40;99.90;;;;;;5002716;28;19930;-72
2022/05/04 12:46:20;;;;;;;;;;;20.40;98.80;;;;;;5006795;28;19947;-72
2022/05/04 12:48:51;;;;;;;;;;;20.40;99.90;;;;;;4998278;28;20286;-72
2022/05/04 12:51:24;;;;;;;;;;;20.50;99.20;;;;;;5004589;28;19929;-72
2022/05/04 12:53:56;;;;;;;;;;;20.50;99.00;;;;;;4994460;28;20422;-73
2022/05/04 12:56:46;;;;;;;;;;;20.50;99.60;;;;;;5009935;28;19925;-72
2022/05/04 12:59:14;;;;;;;;;;;20.40;99.20;;;;;;5002517;28;19937;-73
2022/05/04 13:01:45;;;;;;;;;;;20.40;98.30;;;;;;5004705;28;19932;-73
2022/05/04 13:04:18;;;;;;;;;;;20.50;99.10;;;;;;4998561;28;19926;-72
2022/05/04 13:06:49;;;;;;;;;;;20.60;99.50;;;;;;5004925;28;19926;-72
2022/05/04 13:09:21;;;;;;;;;;;20.70;99.90;;;;;;5017401;28;19925;-72
2022/05/04 13:11:52;;;;;;;;;;;20.60;99.90;;;;;;5007288;28;19932;-72
2022/05/04 13:14:24;;;;;;;;;;;20.30;99.90;;;;;;5006128;28;19932;-72
2022/05/04 13:16:51;;;;;;;;;;;20.10;99.90;;;;;;4992320;28;19936;-72
2022/05/04 13:19:23;;;;;;;;;;;19.90;99.90;;;;;;4999676;28;19929;-72
2022/05/04 13:21:49;;;;;;;;;;;19.50;99.90;;;;;;4997885;28;19982;-72
2022/05/04 13:24:19;;;;;;;;;;;19.10;99.90;;;;;;4999745;28;19931;-73
2022/05/04 13:26:48;;;;;;;;;;;18.70;99.90;;;;;;5001738;28;19925;-72
2022/05/04 13:29:20;;;;;;;;;;;18.40;99.90;;;;;;5002841;28;19930;-73
2022/05/04 13:31:52;;;;;;;;;;;18.10;99.90;;;;;;5005183;28;19931;-72
2022/05/04 13:34:24;;;;;;;;;;;17.70;99.90;;;;;;4999952;28;19930;-72
2022/05/04 13:36:56;;;;;;;;;;;17.50;99.90;;;;;;5005268;28;19933;-72
2022/05/04 13:39:22;;;;;;;;;;;17.20;99.90;;;;;;4979952;28;19930;-72
2022/05/04 13:41:54;;;;;;;;;;;17.00;99.90;;;;;;5003962;28;19933;-72
2022/05/04 13:44:26;;;;;;;;;;;16.90;99.90;;;;;;5007655;28;20390;-73
2022/05/04 13:46:57;;;;;;;;;;;16.90;99.90;;;;;;5003833;28;20294;-72
2022/05/04 13:49:29;;;;;;;;;;;16.80;99.90;;;;;;5007357;28;19932;-73
2022/05/04 13:54:51;;;;;;;;;;;16.60;99.90;;;;;;5004194;28;19930;-73
2022/05/04 13:57:22;;;;;;;;;;;16.40;99.90;;;;;;5009703;28;20025;-73
2022/05/04 13:59:54;;;;;;;;;;;16.30;99.90;;;;;;5006333;28;19930;-72
2022/05/04 14:02:25;;;;;;;;;;;16.10;99.90;;;;;;5005262;28;19926;-73
2022/05/04 14:04:57;;;;;;;;;;;16.00;99.90;;;;;;5010423;28;20008;-73
2022/05/04 14:07:28;;;;;;;;;;;16.00;99.90;;;;;;4985883;28;19949;-73
2022/05/04 14:10:00;;;;;;;;;;;16.00;99.90;;;;;;4992270;28;20035;-72
2022/05/04 14:12:27;;;;;;;;;;;16.00;99.90;;;;;;5014117;28;19930;-72
2022/05/04 14:15:01;;;;;;;;;;;16.10;99.90;;;;;;5009923;28;20028;-73
2022/05/04 14:17:34;;;;;;;;;;;16.10;99.90;;;;;;5009869;28;20016;-73
2022/05/04 14:20:06;;;;;;;;;;;16.00;99.90;;;;;;5006985;28;19925;-72
2022/05/04 14:22:38;;;;;;;;;;;16.00;99.90;;;;;;5010656;28;20364;-72
2022/05/04 14:25:10;;;;;;;;;;;16.00;99.90;;;;;;5005135;28;19937;-72
2022/05/04 14:27:43;;;;;;;;;;;15.90;99.90;;;;;;4999489;28;19925;-72
2022/05/04 14:30:16;;;;;;;;;;;15.90;99.90;;;;;;5007677;28;19933;-72
2022/05/04 14:32:48;;;;;;;;;;;16.00;99.90;;;;;;5008264;28;20394;-72
2022/05/04 14:35:19;;;;;;;;;;;16.10;99.90;;;;;;5003840;28;19988;-72
2022/05/04 14:37:51;;;;;;;;;;;16.20;99.90;;;;;;5011733;28;19925;-72
2022/05/04 14:40:24;;;;;;;;;;;16.30;99.90;;;;;;5014234;28;20036;-72
2022/05/04 14:42:57;;;;;;;;;;;16.40;99.90;;;;;;5005594;28;20032;-73
2022/05/04 14:45:29;;;;;;;;;;;16.40;99.90;;;;;;5005820;28;20350;-72
2022/05/04 14:48:01;;;;;;;;;;;16.60;99.90;;;;;;4987488;28;19929;-72
2022/05/04 14:50:34;;;;;;;;;;;16.80;99.90;;;;;;5007343;28;20020;-72
2022/05/04 14:53:06;;;;;;;;;;;17.00;99.90;;;;;;5000885;28;19929;-72
2022/05/04 14:55:33;;;;;;;;;;;17.30;99.90;;;;;;5010228;28;19936;-73
2022/05/04 14:58:06;;;;;;;;;;;17.60;99.90;;;;;;5005128;28;19929;-72
2022/05/04 15:00:32;;;;;;;;;;;17.90;99.90;;;;;;4990637;28;20013;-72
2022/05/04 15:05:54;;;;;;;;;;;18.60;99.90;;;;;;5002207;28;19936;-72
2022/05/04 15:08:27;;;;;;;;;;;19.20;99.90;;;;;;5002627;28;19929;-72
2022/05/04 15:10:59;;;;;;;;;;;19.50;99.90;;;;;;5005702;28;19962;-73
2022/05/04 15:13:25;;;;;;;;;;;20.00;99.90;;;;;;5006766;28;20386;-72
2022/05/04 15:15:52;;;;;;;;;;;20.60;99.90;;;;;;5006741;28;19936;-72
2022/05/04 15:18:25;;;;;;;;;;;21.30;99.90;;;;;;5006814;28;19949;-72
2022/05/04 15:20:57;;;;;;;;;;;21.80;99.90;;;;;;5006875;28;19936;-72
2022/05/04 15:23:28;;;;;;;;;;;22.20;99.90;;;;;;5005139;28;19961;-72
2022/05/04 15:26:01;;;;;;;;;;;22.50;99.90;;;;;;5008585;28;19933;-72